createdAt,value
2018-02-20T00:01:57.144Z,54.30
2018-02-20T00:04:25.371Z,54.30
2018-02-20T00:06:52.814Z,54.30
2018-02-20T00:09:20.276Z,54.40
2018-02-20T00:11:47.713Z,54.70
2018-02-20T00:14:15.155Z,54.50
2018-02-20T00:16:42.653Z,54.60
2018-02-20T00:19:10.122Z,54.60
2018-02-20T00:21:37.663Z,54.60
2018-02-20T00:24:05.113Z,54.40
2018-02-20T00:26:32.583Z,54.50
2018-02-20T00:29:00.040Z,54.30
2018-02-20T00:31:27.476Z,54.50
2018-02-20T00:33:54.920Z,54.60
2018-02-20T00:36:22.415Z,54.40
2018-02-20T00:38:49.865Z,54.40
2018-02-20T00:41:17.300Z,54.40
2018-02-20T00:43:44.776Z,54.00
2018-02-20T00:46:12.223Z,54.40
2018-02-20T00:48:39.651Z,54.50
2018-02-20T00:51:07.092Z,54.60
2018-02-20T00:53:35.292Z,54.40
2018-02-20T00:56:02.727Z,54.40
2018-02-20T00:58:31.059Z,54.40
2018-02-20T01:00:58.515Z,54.40
2018-02-20T01:03:26.172Z,54.10
2018-02-20T01:05:53.628Z,54.10
2018-02-20T01:08:21.092Z,54.40
2018-02-20T01:10:48.532Z,54.30
2018-02-20T01:13:15.968Z,54.50
2018-02-20T01:15:43.416Z,54.40
2018-02-20T01:18:10.913Z,54.30
2018-02-20T01:20:38.376Z,54.20
2018-02-20T01:23:05.936Z,54.40
2018-02-20T01:25:33.395Z,54.30
2018-02-20T01:28:00.856Z,54.10
2018-02-20T01:30:28.416Z,54.10
2018-02-20T01:32:55.870Z,54.10
2018-02-20T01:35:23.420Z,53.90
2018-02-20T01:37:50.870Z,54.50
2018-02-20T01:40:18.312Z,54.00
2018-02-20T01:42:45.752Z,54.10
2018-02-20T01:45:13.192Z,54.20
2018-02-20T01:47:41.423Z,54.10
2018-02-20T01:50:08.885Z,54.10
2018-02-20T01:52:36.327Z,54.50
2018-02-20T01:55:03.788Z,54.40
2018-02-20T01:57:31.228Z,54.70
2018-02-20T01:59:58.708Z,54.90
2018-02-20T02:02:26.151Z,54.70
2018-02-20T02:04:53.582Z,54.60
2018-02-20T02:07:21.073Z,54.80
2018-02-20T02:09:48.536Z,54.60
2018-02-20T02:12:15.988Z,54.80
2018-02-20T02:14:43.423Z,54.80
2018-02-20T02:17:10.860Z,54.80
2018-02-20T02:19:38.359Z,54.90
2018-02-20T02:22:05.801Z,54.60
2018-02-20T02:24:33.240Z,54.20
2018-02-20T02:27:00.728Z,54.60
2018-02-20T02:29:28.192Z,54.40
2018-02-20T02:31:55.630Z,54.20
2018-02-20T02:34:23.061Z,54.20
2018-02-20T02:36:51.285Z,54.20
2018-02-20T02:39:18.724Z,54.20
2018-02-20T02:41:46.176Z,54.30
2018-02-20T02:44:13.618Z,54.30
2018-02-20T02:46:41.666Z,54.10
2018-02-20T02:49:09.887Z,53.90
2018-02-20T02:51:37.324Z,53.80
2018-02-20T02:54:04.780Z,53.80
2018-02-20T02:56:32.215Z,53.70
2018-02-20T02:58:59.724Z,54.00
2018-02-20T03:01:27.668Z,54.00
2018-02-20T03:03:55.119Z,53.90
2018-02-20T03:06:22.563Z,54.30
2018-02-20T03:08:50.068Z,54.40
2018-02-20T03:11:17.627Z,54.20
2018-02-20T03:13:45.077Z,54.10
2018-02-20T03:16:12.528Z,54.90
2018-02-20T03:18:39.980Z,54.70
2018-02-20T03:21:07.431Z,54.70
2018-02-20T03:23:35.411Z,54.60
2018-02-20T03:26:02.874Z,54.20
2018-02-20T03:28:30.307Z,54.10
2018-02-20T03:30:57.747Z,54.10
2018-02-20T03:33:25.203Z,54.10
2018-02-20T03:35:52.697Z,53.80
2018-02-20T03:38:20.130Z,54.00
2018-02-20T03:40:47.568Z,54.10
2018-02-20T03:43:15.072Z,54.30
2018-02-20T03:45:42.523Z,54.50
2018-02-20T03:48:09.968Z,54.60
2018-02-20T03:50:37.411Z,54.50
2018-02-20T03:53:05.049Z,54.60
2018-02-20T03:55:33.259Z,54.70
2018-02-20T03:58:00.745Z,54.70
2018-02-20T04:00:28.295Z,54.60
2018-02-20T04:02:55.745Z,54.70
2018-02-20T04:05:23.178Z,54.60
2018-02-20T04:07:50.621Z,54.50
2018-02-20T04:10:18.822Z,54.60
2018-02-20T04:12:46.258Z,54.40
2018-02-20T04:15:13.744Z,54.50
2018-02-20T04:17:41.207Z,54.40
2018-02-20T04:20:08.747Z,54.40
2018-02-20T04:22:36.219Z,54.50
2018-02-20T04:25:03.660Z,54.20
2018-02-20T04:27:31.140Z,54.40
2018-02-20T04:29:58.595Z,54.40
2018-02-20T04:32:26.024Z,54.20
2018-02-20T04:34:53.504Z,54.10
2018-02-20T04:37:20.968Z,54.40
2018-02-20T04:39:48.429Z,54.20
2018-02-20T04:42:15.869Z,54.00
2018-02-20T04:44:43.309Z,53.80
2018-02-20T04:47:11.307Z,54.00
2018-02-20T04:49:38.746Z,54.00
2018-02-20T04:52:06.176Z,54.10
2018-02-20T04:54:33.676Z,54.00
2018-02-20T04:57:01.177Z,54.20
2018-02-20T04:59:29.410Z,54.20
2018-02-20T05:01:56.839Z,54.70
2018-02-20T05:04:24.315Z,54.30
2018-02-20T05:06:51.776Z,54.00
2018-02-20T05:09:20.264Z,54.10
2018-02-20T05:11:47.811Z,54.10
2018-02-20T05:14:15.268Z,54.10
2018-02-20T05:16:42.727Z,54.00
2018-02-20T05:19:10.188Z,54.00
2018-02-20T05:21:37.640Z,54.00
2018-02-20T05:24:05.099Z,54.10
2018-02-20T05:26:32.546Z,54.30
2018-02-20T05:28:59.995Z,54.40
2018-02-20T05:31:27.485Z,54.70
2018-02-20T05:33:55.032Z,54.60
2018-02-20T05:36:22.484Z,54.70
2018-02-20T05:38:49.924Z,54.60
2018-02-20T05:41:17.363Z,54.80
2018-02-20T05:43:44.804Z,54.80
2018-02-20T05:46:13.034Z,54.90
2018-02-20T05:48:40.474Z,54.90
2018-02-20T05:51:07.914Z,55.00
2018-02-20T05:53:35.357Z,55.00
2018-02-20T05:56:03.680Z,55.10
2018-02-20T05:58:31.127Z,55.00
2018-02-20T06:00:59.304Z,55.10
2018-02-20T06:03:26.767Z,55.20
2018-02-20T06:05:54.215Z,55.30
2018-02-20T06:08:21.668Z,55.20
2018-02-20T06:10:49.101Z,55.10
2018-02-20T06:13:16.600Z,55.20
2018-02-20T06:15:44.212Z,55.20
2018-02-20T06:18:11.716Z,55.50
2018-02-20T06:20:39.168Z,55.60
2018-02-20T06:23:06.657Z,55.70
2018-02-20T06:25:34.089Z,55.90
2018-02-20T06:28:01.544Z,55.80
2018-02-20T06:30:28.999Z,55.80
2018-02-20T06:32:56.451Z,55.90
2018-02-20T06:35:23.880Z,56.10
2018-02-20T06:37:51.312Z,55.90
2018-02-20T06:40:19.540Z,55.90
2018-02-20T06:42:47.003Z,55.90
2018-02-20T06:45:14.564Z,56.00
2018-02-20T06:47:42.124Z,56.20
2018-02-20T06:50:09.558Z,56.30
2018-02-20T06:52:36.996Z,56.30
2018-02-20T06:55:04.500Z,56.50
2018-02-20T06:57:31.945Z,56.60
2018-02-20T06:59:59.396Z,56.40
2018-02-20T07:02:26.858Z,56.50
2018-02-20T07:04:54.311Z,56.30
2018-02-20T07:07:21.768Z,56.30
2018-02-20T07:09:49.231Z,56.40
2018-02-20T07:12:16.682Z,56.30
2018-02-20T07:14:44.116Z,56.40
2018-02-20T07:17:11.560Z,56.30
2018-02-20T07:19:39.066Z,56.20
2018-02-20T07:22:06.531Z,56.40
2018-02-20T07:24:33.955Z,56.40
2018-02-20T07:27:01.436Z,56.30
2018-02-20T07:29:28.888Z,56.50
2018-02-20T07:31:56.332Z,56.40
2018-02-20T07:34:23.799Z,56.40
2018-02-20T07:36:51.243Z,56.40
2018-02-20T07:39:18.707Z,56.30
2018-02-20T07:41:46.148Z,56.10
2018-02-20T07:44:13.597Z,56.10
2018-02-20T07:46:41.060Z,55.80
2018-02-20T07:49:09.410Z,55.80
2018-02-20T07:51:37.620Z,55.40
2018-02-20T07:54:05.087Z,55.40
2018-02-20T07:56:32.535Z,55.20
2018-02-20T07:59:00.017Z,55.00
2018-02-20T08:01:27.456Z,55.00
2018-02-20T08:03:55.024Z,55.00
2018-02-20T08:06:22.464Z,54.80
2018-02-20T08:08:49.905Z,54.90
2018-02-20T08:11:17.395Z,55.20
2018-02-20T08:13:44.852Z,55.40
2018-02-20T08:16:12.291Z,54.80
2018-02-20T08:18:39.803Z,54.30
2018-02-20T08:21:07.232Z,54.40
2018-02-20T08:23:34.778Z,54.20
2018-02-20T08:26:02.237Z,54.30
2018-02-20T08:28:29.808Z,54.20
2018-02-20T08:30:57.253Z,54.20
2018-02-20T08:33:25.433Z,54.20
2018-02-20T08:35:52.992Z,54.20
2018-02-20T08:38:20.440Z,54.20
2018-02-20T08:40:47.884Z,54.40
2018-02-20T08:43:15.372Z,54.00
2018-02-20T08:45:42.921Z,53.90
2018-02-20T08:48:10.383Z,54.00
2018-02-20T08:50:37.823Z,54.00
2018-02-20T08:53:05.284Z,54.00
2018-02-20T08:55:32.726Z,53.90
2018-02-20T08:58:00.212Z,54.10
2018-02-20T09:00:27.639Z,53.80
2018-02-20T09:02:55.076Z,54.00
2018-02-20T09:05:22.520Z,53.80
2018-02-20T09:07:50.754Z,53.60
2018-02-20T09:10:18.184Z,53.60
2018-02-20T09:12:45.617Z,53.70
2018-02-20T09:15:13.112Z,53.60
2018-02-20T09:17:40.550Z,54.10
2018-02-20T09:20:08.019Z,53.60
2018-02-20T09:22:35.464Z,53.80
2018-02-20T09:25:02.940Z,53.50
2018-02-20T09:27:30.370Z,53.20
2018-02-20T09:29:57.851Z,53.20
2018-02-20T09:32:25.293Z,53.50
2018-02-20T09:34:52.751Z,53.10
2018-02-20T09:37:20.220Z,53.30
2018-02-20T09:39:47.651Z,53.40
2018-02-20T09:42:15.135Z,53.00
2018-02-20T09:44:42.592Z,53.00
2018-02-20T09:47:10.048Z,53.00
2018-02-20T09:49:37.504Z,52.60
2018-02-20T09:52:04.951Z,52.80
2018-02-20T09:54:32.416Z,52.60
2018-02-20T09:56:59.875Z,52.00
2018-02-20T09:59:27.327Z,52.20
2018-02-20T10:01:54.762Z,52.30
2018-02-20T10:04:22.248Z,51.70
2018-02-20T10:06:49.708Z,51.60
2018-02-20T10:09:17.881Z,51.70
2018-02-20T10:11:45.328Z,51.60
2018-02-20T10:14:13.607Z,51.90
2018-02-20T10:16:41.035Z,51.40
2018-02-20T10:19:08.723Z,51.50
2018-02-20T10:21:36.184Z,51.10
2018-02-20T10:24:03.641Z,50.70
2018-02-20T10:26:31.104Z,51.10
2018-02-20T10:28:58.671Z,51.10
2018-02-20T10:31:26.116Z,50.50
2018-02-20T10:33:53.561Z,50.40
2018-02-20T10:36:21.038Z,50.40
2018-02-20T10:38:48.627Z,50.50
2018-02-20T10:41:16.147Z,50.40
2018-02-20T10:43:43.607Z,50.20
2018-02-20T10:46:11.169Z,50.20
2018-02-20T10:48:38.612Z,50.60
2018-02-20T10:51:06.068Z,50.10
2018-02-20T10:53:33.536Z,50.00
2018-02-20T10:56:00.995Z,50.00
2018-02-20T10:58:28.423Z,49.80
2018-02-20T11:00:55.910Z,49.70
2018-02-20T11:03:23.339Z,49.70
2018-02-20T11:05:50.779Z,49.60
2018-02-20T11:08:18.275Z,49.60
2018-02-20T11:10:45.839Z,49.70
2018-02-20T11:13:13.321Z,48.80
2018-02-20T11:15:40.754Z,48.50
2018-02-20T11:18:08.203Z,49.10
2018-02-20T11:20:35.673Z,49.40
2018-02-20T11:23:03.108Z,48.80
2018-02-20T11:25:30.588Z,49.50
2018-02-20T11:27:58.137Z,48.40
2018-02-20T11:30:25.600Z,48.90
2018-02-20T11:32:53.091Z,49.10
2018-02-20T11:35:21.299Z,48.80
2018-02-20T11:37:48.736Z,48.80
2018-02-20T11:40:16.239Z,49.10
2018-02-20T11:42:43.672Z,49.30
2018-02-20T11:45:11.154Z,49.20
2018-02-20T11:47:38.587Z,49.00
2018-02-20T11:50:06.027Z,49.00
2018-02-20T11:52:33.503Z,48.60
2018-02-20T11:55:00.982Z,48.80
2018-02-20T11:57:28.412Z,48.60
2018-02-20T11:59:55.851Z,47.90
2018-02-20T12:02:23.292Z,47.60
2018-02-20T12:04:51.527Z,47.30
2018-02-20T12:07:18.985Z,47.20
2018-02-20T12:09:46.419Z,47.30
2018-02-20T12:12:13.891Z,47.60
2018-02-20T12:14:41.356Z,47.30
2018-02-20T12:17:08.916Z,47.10
2018-02-20T12:19:36.376Z,47.40
2018-02-20T12:22:03.820Z,47.40
2018-02-20T12:24:31.280Z,47.30
2018-02-20T12:26:58.724Z,47.60
2018-02-20T12:29:26.199Z,47.60
2018-02-20T12:31:53.648Z,47.60
2018-02-20T12:34:21.243Z,47.30
2018-02-20T12:36:48.784Z,47.20
2018-02-20T12:39:16.339Z,46.50
2018-02-20T12:41:43.890Z,47.20
2018-02-20T12:44:11.328Z,46.80
2018-02-20T12:46:38.802Z,46.80
2018-02-20T12:49:06.276Z,46.80
2018-02-20T12:51:33.724Z,46.80
2018-02-20T12:54:01.275Z,46.60
2018-02-20T12:56:28.836Z,46.70
2018-02-20T12:58:56.441Z,46.90
2018-02-20T13:01:24.679Z,46.50
2018-02-20T13:03:52.228Z,46.50
2018-02-20T13:06:20.195Z,45.80
2018-02-20T13:08:47.674Z,45.60
2018-02-20T13:11:15.215Z,45.50
2018-02-20T13:13:42.676Z,45.60
2018-02-20T13:16:10.130Z,46.20
2018-02-20T13:18:38.460Z,46.50
2018-02-20T13:21:06.680Z,46.40
2018-02-20T13:23:34.296Z,46.30
2018-02-20T13:26:02.497Z,47.00
2018-02-20T13:28:30.011Z,47.00
2018-02-20T13:30:58.279Z,47.80
2018-02-20T13:33:26.857Z,47.00
2018-02-20T13:35:54.405Z,47.00
2018-02-20T13:38:21.953Z,46.90
2018-02-20T13:40:49.403Z,47.40
2018-02-20T13:43:16.867Z,47.50
2018-02-20T13:45:44.336Z,47.30
2018-02-20T13:48:11.775Z,47.40
2018-02-20T13:50:39.235Z,47.80
2018-02-20T13:53:06.701Z,47.60
2018-02-20T13:55:34.260Z,47.60
2018-02-20T13:58:01.716Z,47.90
2018-02-20T14:00:29.168Z,48.10
2018-02-20T14:02:56.723Z,48.40
2018-02-20T14:05:24.182Z,48.00
2018-02-20T14:07:51.635Z,47.80
2018-02-20T14:10:19.091Z,47.60
2018-02-20T14:12:46.536Z,46.80
2018-02-20T14:15:13.980Z,46.80
2018-02-20T14:17:41.472Z,46.60
2018-02-20T14:20:08.938Z,46.40
2018-02-20T14:22:36.486Z,46.80
2018-02-20T14:25:03.939Z,46.70
2018-02-20T14:27:32.332Z,46.30
2018-02-20T14:29:59.768Z,46.60
2018-02-20T14:32:27.241Z,46.70
2018-02-20T14:34:54.691Z,46.60
2018-02-20T14:37:22.146Z,46.80
2018-02-20T14:39:49.579Z,46.80
2018-02-20T14:42:17.060Z,46.90
2018-02-20T14:44:44.495Z,47.00
2018-02-20T14:47:11.973Z,47.20
2018-02-20T14:49:39.429Z,47.20
2018-02-20T14:52:06.863Z,47.30
2018-02-20T14:54:34.350Z,47.60
2018-02-20T14:57:01.879Z,47.00
2018-02-20T14:59:30.028Z,47.30
2018-02-20T15:01:58.244Z,47.00
2018-02-20T15:04:25.715Z,47.00
2018-02-20T15:06:53.267Z,46.90
2018-02-20T15:09:20.727Z,46.70
2018-02-20T15:11:48.183Z,46.60
2018-02-20T15:14:15.640Z,46.90
2018-02-20T15:16:43.194Z,46.80
2018-02-20T15:19:10.753Z,46.60
2018-02-20T15:21:38.207Z,47.00
2018-02-20T15:24:05.641Z,46.80
2018-02-20T15:26:33.135Z,47.00
2018-02-20T15:29:00.572Z,47.30
2018-02-20T15:31:28.003Z,47.20
2018-02-20T15:33:55.464Z,47.00
2018-02-20T15:36:22.904Z,47.40
2018-02-20T15:38:51.142Z,47.00
2018-02-20T15:41:19.344Z,47.30
2018-02-20T15:43:47.681Z,47.00
2018-02-20T15:46:15.144Z,47.00
2018-02-20T15:48:43.307Z,46.90
2018-02-20T15:51:10.764Z,46.90
2018-02-20T15:53:38.220Z,47.10
2018-02-20T15:56:05.664Z,46.80
2018-02-20T15:58:33.139Z,46.90
2018-02-20T16:01:00.596Z,47.10
2018-02-20T16:03:28.040Z,46.60
2018-02-20T16:05:55.477Z,46.20
2018-02-20T16:08:22.920Z,46.60
2018-02-20T16:10:51.242Z,46.40
2018-02-20T16:13:18.696Z,46.40
2018-02-20T16:16:01.040Z,46.10
2018-02-20T16:18:29.246Z,46.50
2018-02-20T16:20:56.732Z,46.50
2018-02-20T16:23:24.191Z,46.10
2018-02-20T16:25:51.623Z,46.40
2018-02-20T16:28:19.092Z,46.60
2018-02-20T16:30:46.524Z,46.60
2018-02-20T16:33:13.956Z,46.60
2018-02-20T16:35:42.189Z,46.70
2018-02-20T16:38:09.624Z,46.60
2018-02-20T16:40:37.056Z,46.60
2018-02-20T16:43:04.553Z,46.90
2018-02-20T16:45:32.024Z,47.00
2018-02-20T16:47:59.462Z,47.20
2018-02-20T16:50:26.927Z,47.30
2018-02-20T16:52:54.374Z,47.40
2018-02-20T16:55:21.803Z,47.40
2018-02-20T16:57:49.251Z,47.60
2018-02-20T17:00:17.452Z,47.70
2018-02-20T17:02:44.931Z,47.70
2018-02-20T17:05:12.384Z,47.60
2018-02-20T17:07:39.831Z,47.60
2018-02-20T17:10:07.267Z,48.20
2018-02-20T17:12:34.768Z,47.90
2018-02-20T17:15:02.215Z,48.00
2018-02-20T17:17:29.771Z,47.90
2018-02-20T17:19:57.207Z,48.30
2018-02-20T17:22:24.664Z,48.40
2018-02-20T17:24:52.151Z,48.10
2018-02-20T17:27:19.584Z,48.00
2018-02-20T17:29:47.028Z,48.30
2018-02-20T17:32:14.527Z,48.30
2018-02-20T17:34:41.971Z,48.20
2018-02-20T17:37:09.435Z,48.40
2018-02-20T17:39:36.891Z,48.50
2018-02-20T17:42:04.344Z,48.40
2018-02-20T17:44:31.799Z,48.60
2018-02-20T17:46:59.259Z,48.80
2018-02-20T17:49:26.704Z,49.40
2018-02-20T17:51:54.167Z,49.40
2018-02-20T17:54:21.630Z,49.40
2018-02-20T17:56:49.072Z,49.40
2018-02-20T17:59:16.528Z,49.20
2018-02-20T18:01:43.959Z,49.40
2018-02-20T18:04:11.400Z,49.30
2018-02-20T18:06:39.607Z,48.80
2018-02-20T18:09:07.043Z,48.80
2018-02-20T18:11:34.476Z,49.20
2018-02-20T18:14:02.676Z,49.70
2018-02-20T18:16:30.117Z,49.40
2018-02-20T18:18:58.317Z,48.90
2018-02-20T18:21:25.753Z,48.90
2018-02-20T18:23:53.955Z,49.40
2018-02-20T18:26:21.424Z,49.40
2018-02-20T18:28:48.844Z,48.90
2018-02-20T18:31:16.273Z,49.10
2018-02-20T18:33:43.711Z,48.70
2018-02-20T18:36:11.164Z,48.50
2018-02-20T18:38:38.608Z,48.90
2018-02-20T18:41:06.047Z,48.80
2018-02-20T18:43:33.528Z,48.80
2018-02-20T18:46:00.961Z,48.70
2018-02-20T18:48:28.395Z,49.10
2018-02-20T18:50:56.604Z,49.30
2018-02-20T18:53:24.042Z,49.30
2018-02-20T18:55:51.475Z,49.50
2018-02-20T18:58:19.687Z,49.20
2018-02-20T19:00:47.126Z,49.20
2018-02-20T19:03:14.571Z,49.40
2018-02-20T19:05:42.778Z,49.70
2018-02-20T19:08:10.256Z,49.60
2018-02-20T19:10:37.695Z,49.70
2018-02-20T19:13:05.123Z,49.80
2018-02-20T19:15:32.568Z,49.30
2018-02-20T19:18:00.779Z,49.70
2018-02-20T19:20:28.211Z,49.70
2018-02-20T19:22:55.651Z,49.90
2018-02-20T19:25:23.855Z,50.20
2018-02-20T19:27:51.287Z,50.20
2018-02-20T19:30:19.503Z,50.10
2018-02-20T19:32:46.935Z,50.10
2018-02-20T19:35:14.395Z,50.10
2018-02-20T19:37:41.823Z,50.00
2018-02-20T19:40:10.020Z,49.80
2018-02-20T19:42:37.462Z,49.80
2018-02-20T19:45:05.672Z,50.10
2018-02-20T19:47:33.125Z,50.10
2018-02-20T19:50:00.580Z,50.20
2018-02-20T19:52:28.015Z,50.00
2018-02-20T19:54:55.444Z,49.90
2018-02-20T19:57:22.888Z,49.80
2018-02-20T19:59:50.335Z,49.80
2018-02-20T20:02:17.772Z,49.80
2018-02-20T20:04:45.216Z,49.60
2018-02-20T20:07:12.659Z,49.50
2018-02-20T20:09:40.096Z,49.00
2018-02-20T20:12:08.300Z,49.10
2018-02-20T20:14:35.744Z,49.10
2018-02-20T20:17:03.186Z,49.00
2018-02-20T20:19:31.384Z,48.70
2018-02-20T20:21:58.824Z,49.30
2018-02-20T20:24:26.288Z,48.60
2018-02-20T20:26:53.727Z,48.60
2018-02-20T20:29:21.936Z,48.90
2018-02-20T20:31:49.375Z,48.80
2018-02-20T20:34:16.812Z,48.50
2018-02-20T20:36:45.034Z,48.60
2018-02-20T20:39:12.469Z,48.60
2018-02-20T20:41:39.905Z,48.70
2018-02-20T20:44:08.112Z,48.20
2018-02-20T20:46:35.540Z,48.20
2018-02-20T20:49:02.992Z,48.40
2018-02-20T20:51:31.196Z,48.20
2018-02-20T20:53:58.644Z,48.20
2018-02-20T20:56:26.936Z,48.60
2018-02-20T20:58:54.371Z,48.40
2018-02-20T21:01:21.828Z,48.20
2018-02-20T21:03:50.021Z,48.50
2018-02-20T21:06:17.466Z,48.50
2018-02-20T21:08:44.900Z,48.60
2018-02-20T21:11:13.105Z,48.60
2018-02-20T21:13:40.587Z,48.50
2018-02-20T21:16:08.032Z,48.30
2018-02-20T21:18:35.464Z,48.30
2018-02-20T21:21:02.917Z,47.80
2018-02-20T21:23:30.370Z,48.10
2018-02-20T21:25:57.828Z,48.00
2018-02-20T21:28:25.262Z,47.70
2018-02-20T21:30:53.458Z,47.80
2018-02-20T21:33:20.917Z,47.70
2018-02-20T21:35:48.343Z,47.60
2018-02-20T21:38:16.546Z,47.50
2018-02-20T21:40:44.008Z,47.20
2018-02-20T21:43:11.441Z,47.30
2018-02-20T21:45:39.636Z,47.10
2018-02-20T21:48:07.071Z,47.10
2018-02-20T21:50:35.304Z,46.80
2018-02-20T21:53:02.744Z,46.80
2018-02-20T21:55:30.192Z,46.80
2018-02-20T21:57:57.620Z,46.60
2018-02-20T22:00:25.844Z,46.50
2018-02-20T22:02:53.308Z,46.50
2018-02-20T22:05:20.776Z,47.10
2018-02-20T22:07:48.240Z,46.80
2018-02-20T22:10:15.776Z,46.70
2018-02-20T22:12:43.211Z,46.80
2018-02-20T22:15:10.666Z,46.90
2018-02-20T22:17:38.150Z,46.80
2018-02-20T22:20:05.602Z,46.90
2018-02-20T22:22:33.048Z,47.30
2018-02-20T22:25:00.480Z,47.00
2018-02-20T22:27:27.927Z,46.90
2018-02-20T22:29:55.856Z,46.90
2018-02-20T22:32:23.412Z,47.00
2018-02-20T22:34:50.964Z,47.00
2018-02-20T22:37:18.516Z,46.80
2018-02-20T22:39:46.631Z,47.00
2018-02-20T22:42:14.062Z,47.00
2018-02-20T22:44:41.507Z,47.10
2018-02-20T22:47:08.959Z,47.10
2018-02-20T22:49:36.415Z,47.20
2018-02-20T22:52:03.871Z,46.80
2018-02-20T22:54:31.327Z,46.80
2018-02-20T22:59:32.703Z,46.80
2018-02-20T23:02:00.153Z,46.90
2018-02-20T23:04:27.588Z,47.10
2018-02-20T23:06:55.071Z,46.90
2018-02-20T23:09:22.640Z,46.80
2018-02-20T23:11:50.193Z,47.00
2018-02-20T23:14:17.643Z,47.20
2018-02-20T23:16:45.091Z,47.10
2018-02-20T23:19:12.522Z,47.20
2018-02-20T23:21:40.733Z,47.00
2018-02-20T23:24:08.189Z,47.00
2018-02-20T23:26:35.649Z,47.10
2018-02-20T23:29:03.076Z,47.30
2018-02-20T23:31:31.384Z,47.20
2018-02-20T23:33:58.821Z,47.10
2018-02-20T23:36:26.273Z,47.10
2018-02-20T23:38:53.752Z,47.00
2018-02-20T23:41:21.205Z,47.40
2018-02-20T23:43:48.647Z,47.10
2018-02-20T23:46:16.119Z,46.90
2018-02-20T23:48:43.564Z,46.80
2018-02-20T23:51:16.869Z,47.00
2018-02-20T23:53:44.316Z,47.00
2018-02-20T23:56:11.777Z,47.00
2018-02-20T23:58:39.252Z,46.50
